Oakland Township, Michigan
Current Conditions -  °F | °C
As of 10:53 AM on Wednesday 28 Jan 2015 (Local Time) from KPTK Reporting Station
Scattered Clouds Scattered Clouds  
Wind Chill: 22°   Ceiling: Unl
Heat Index: 22°   Visibility: 10mi
Dew Point: 12°   Wind: 3mph
Humidity: 66%   Direction: NA
Pressure: 30.3"   Gusts: NA
Location:  42.7595°N, 83.2105°W
Report Text: KPTK 281553Z VRB03KT 10SM SCT250 M06/M11 A3030 RMK AO2 SLP279 T10561111
Loading
Personal Weather Stations






























Interactive Weather Map New forecast layout! Learn more

10-Day Weather Forecast

Advertisements
Track Severe Weather on mobile